Zeona, South Dakota
Current Conditions -  °F | °C
As of 9:15 PM on Friday 19 Dec 2014 (Local Time) from KSPF Reporting Station
Clear Clear  
Wind Chill: 32°   Ceiling: Unl
Heat Index: 32°   Visibility: 10mi
Dew Point: 18°   Wind: 0mph
Humidity: 55%   Direction: NA
Pressure: 29.91"   Gusts: NA
Location:  45.0528°N, 102.806°W
Report Text: KSPF 200415Z AUTO 00000KT 10SM CLR 00/M08 A2991 RMK AO2
Loading
Personal Weather Stations






























Interactive Weather Map New forecast layout! Learn more

10-Day Weather Forecast

Advertisements
Track Severe Weather on mobile